sensor_id;sensor_type;location;lat;lon;timestamp;temperature;humidity
15357;DHT22;7778;48.792;9.260;2023-06-22T00:00:18;22.10;99.90
15357;DHT22;7778;48.792;9.260;2023-06-22T00:03:05;22.00;99.90
15357;DHT22;7778;48.792;9.260;2023-06-22T00:05:52;21.90;99.90
15357;DHT22;7778;48.792;9.260;2023-06-22T00:08:38;21.90;99.90
15357;DHT22;7778;48.792;9.260;2023-06-22T00:11:25;21.90;99.90
15357;DHT22;7778;48.792;9.260;2023-06-22T00:14:12;21.80;99.90
15357;DHT22;7778;48.792;9.260;2023-06-22T00:16:58;21.70;99.90
15357;DHT22;7778;48.792;9.260;2023-06-22T00:19:47;21.70;99.90
15357;DHT22;7778;48.792;9.260;2023-06-22T00:22:37;21.70;99.90
15357;DHT22;7778;48.792;9.260;2023-06-22T00:25:24;21.60;99.90
15357;DHT22;7778;48.792;9.260;2023-06-22T00:28:13;21.50;99.90
15357;DHT22;7778;48.792;9.260;2023-06-22T00:30:59;21.50;99.90
15357;DHT22;7778;48.792;9.260;2023-06-22T00:33:45;21.40;99.90
15357;DHT22;7778;48.792;9.260;2023-06-22T00:36:37;21.60;99.90
15357;DHT22;7778;48.792;9.260;2023-06-22T00:39:25;21.30;99.90
15357;DHT22;7778;48.792;9.260;2023-06-22T00:42:11;21.30;99.90
15357;DHT22;7778;48.792;9.260;2023-06-22T00:44:59;21.30;99.90
15357;DHT22;7778;48.792;9.260;2023-06-22T00:47:45;21.20;99.90
15357;DHT22;7778;48.792;9.260;2023-06-22T00:50:34;21.00;99.90
15357;DHT22;7778;48.792;9.260;2023-06-22T00:53:20;21.10;99.90
15357;DHT22;7778;48.792;9.260;2023-06-22T00:56:07;21.10;99.90
15357;DHT22;7778;48.792;9.260;2023-06-22T00:58:58;21.20;99.90
15357;DHT22;7778;48.792;9.260;2023-06-22T01:01:48;21.30;99.90
15357;DHT22;7778;48.792;9.260;2023-06-22T01:04:35;21.10;99.90
15357;DHT22;7778;48.792;9.260;2023-06-22T01:07:35;21.10;99.90
15357;DHT22;7778;48.792;9.260;2023-06-22T01:10:29;21.10;99.90
15357;DHT22;7778;48.792;9.260;2023-06-22T01:13:28;21.00;99.90
15357;DHT22;7778;48.792;9.260;2023-06-22T01:16:20;21.00;99.90
15357;DHT22;7778;48.792;9.260;2023-06-22T01:19:20;21.00;99.90
15357;DHT22;7778;48.792;9.260;2023-06-22T01:22:16;21.00;99.90
15357;DHT22;7778;48.792;9.260;2023-06-22T01:25:09;20.90;99.90
15357;DHT22;7778;48.792;9.260;2023-06-22T01:28:01;20.80;99.90
15357;DHT22;7778;48.792;9.260;2023-06-22T01:30:51;20.90;99.90
15357;DHT22;7778;48.792;9.260;2023-06-22T01:33:51;20.80;99.90
15357;DHT22;7778;48.792;9.260;2023-06-22T01:36:40;20.60;99.90
15357;DHT22;7778;48.792;9.260;2023-06-22T01:39:27;20.60;99.90
15357;DHT22;7778;48.792;9.260;2023-06-22T01:42:16;20.60;99.90
15357;DHT22;7778;48.792;9.260;2023-06-22T01:45:06;20.60;99.90
15357;DHT22;7778;48.792;9.260;2023-06-22T01:47:54;20.50;99.90
15357;DHT22;7778;48.792;9.260;2023-06-22T01:50:41;20.50;99.90
15357;DHT22;7778;48.792;9.260;2023-06-22T01:53:29;20.40;99.90
15357;DHT22;7778;48.792;9.260;2023-06-22T01:56:17;20.30;99.90
15357;DHT22;7778;48.792;9.260;2023-06-22T01:59:08;20.30;99.90
15357;DHT22;7778;48.792;9.260;2023-06-22T02:02:00;20.30;99.90
15357;DHT22;7778;48.792;9.260;2023-06-22T02:04:54;20.30;99.90
15357;DHT22;7778;48.792;9.260;2023-06-22T02:07:46;20.20;99.90
15357;DHT22;7778;48.792;9.260;2023-06-22T02:10:34;20.20;99.90
15357;DHT22;7778;48.792;9.260;2023-06-22T02:13:21;20.20;99.90
15357;DHT22;7778;48.792;9.260;2023-06-22T02:16:07;20.10;99.90
15357;DHT22;7778;48.792;9.260;2023-06-22T02:18:52;20.10;99.90
15357;DHT22;7778;48.792;9.260;2023-06-22T02:21:39;20.10;99.90
15357;DHT22;7778;48.792;9.260;2023-06-22T02:24:25;20.10;99.90
15357;DHT22;7778;48.792;9.260;2023-06-22T02:27:11;20.10;99.90
15357;DHT22;7778;48.792;9.260;2023-06-22T02:29:57;20.10;99.90
15357;DHT22;7778;48.792;9.260;2023-06-22T02:32:42;20.20;99.90
15357;DHT22;7778;48.792;9.260;2023-06-22T02:35:28;20.20;99.90
15357;DHT22;7778;48.792;9.260;2023-06-22T02:38:17;20.20;99.90
15357;DHT22;7778;48.792;9.260;2023-06-22T02:41:03;20.20;99.90
15357;DHT22;7778;48.792;9.260;2023-06-22T02:43:50;20.20;99.90
15357;DHT22;7778;48.792;9.260;2023-06-22T02:46:36;20.20;99.90
15357;DHT22;7778;48.792;9.260;2023-06-22T02:49:22;20.30;99.90
15357;DHT22;7778;48.792;9.260;2023-06-22T02:52:08;20.40;99.90
15357;DHT22;7778;48.792;9.260;2023-06-22T02:54:55;20.40;99.90
15357;DHT22;7778;48.792;9.260;2023-06-22T02:57:41;20.20;99.90
15357;DHT22;7778;48.792;9.260;2023-06-22T03:00:30;20.20;99.90
15357;DHT22;7778;48.792;9.260;2023-06-22T03:03:15;20.10;99.90
15357;DHT22;7778;48.792;9.260;2023-06-22T03:06:01;20.20;99.90
15357;DHT22;7778;48.792;9.260;2023-06-22T03:08:46;20.20;99.90
15357;DHT22;7778;48.792;9.260;2023-06-22T03:11:34;20.10;99.90
15357;DHT22;7778;48.792;9.260;2023-06-22T03:14:20;20.00;99.90
15357;DHT22;7778;48.792;9.260;2023-06-22T03:17:05;20.00;99.90
15357;DHT22;7778;48.792;9.260;2023-06-22T03:19:51;19.70;99.90
15357;DHT22;7778;48.792;9.260;2023-06-22T03:22:37;19.90;99.90
15357;DHT22;7778;48.792;9.260;2023-06-22T03:25:23;19.90;99.90
15357;DHT22;7778;48.792;9.260;2023-06-22T03:28:10;19.90;99.90
15357;DHT22;7778;48.792;9.260;2023-06-22T03:30:57;19.90;99.90
15357;DHT22;7778;48.792;9.260;2023-06-22T03:33:43;19.90;99.90
15357;DHT22;7778;48.792;9.260;2023-06-22T03:36:29;20.00;99.90
15357;DHT22;7778;48.792;9.260;2023-06-22T03:39:14;20.00;99.90
15357;DHT22;7778;48.792;9.260;2023-06-22T03:42:00;20.00;99.90
15357;DHT22;7778;48.792;9.260;2023-06-22T03:44:47;20.10;99.90
15357;DHT22;7778;48.792;9.260;2023-06-22T03:47:33;20.10;99.90
15357;DHT22;7778;48.792;9.260;2023-06-22T03:50:19;20.10;99.90
15357;DHT22;7778;48.792;9.260;2023-06-22T03:53:05;20.10;99.90
15357;DHT22;7778;48.792;9.260;2023-06-22T03:55:51;20.10;99.90
15357;DHT22;7778;48.792;9.260;2023-06-22T03:58:37;20.20;99.90
15357;DHT22;7778;48.792;9.260;2023-06-22T04:01:28;20.20;99.90
15357;DHT22;7778;48.792;9.260;2023-06-22T04:04:14;20.30;99.90
15357;DHT22;7778;48.792;9.260;2023-06-22T04:07:00;20.40;99.90
15357;DHT22;7778;48.792;9.260;2023-06-22T04:09:45;20.50;99.90
15357;DHT22;7778;48.792;9.260;2023-06-22T04:12:31;20.50;99.90
15357;DHT22;7778;48.792;9.260;2023-06-22T04:15:16;20.70;99.90
15357;DHT22;7778;48.792;9.260;2023-06-22T04:18:03;20.70;99.90
15357;DHT22;7778;48.792;9.260;2023-06-22T04:20:49;20.80;99.90
15357;DHT22;7778;48.792;9.260;2023-06-22T04:23:35;20.80;99.90
15357;DHT22;7778;48.792;9.260;2023-06-22T04:26:20;20.80;99.90
15357;DHT22;7778;48.792;9.260;2023-06-22T04:29:06;20.80;99.90
15357;DHT22;7778;48.792;9.260;2023-06-22T04:31:52;20.70;99.90
15357;DHT22;7778;48.792;9.260;2023-06-22T04:34:41;20.80;99.90
15357;DHT22;7778;48.792;9.260;2023-06-22T04:37:27;21.00;99.90
15357;DHT22;7778;48.792;9.260;2023-06-22T04:40:12;21.20;99.90
15357;DHT22;7778;48.792;9.260;2023-06-22T04:42:59;21.40;99.90
15357;DHT22;7778;48.792;9.260;2023-06-22T04:45:46;21.40;99.90
15357;DHT22;7778;48.792;9.260;2023-06-22T04:48:36;21.60;99.90
15357;DHT22;7778;48.792;9.260;2023-06-22T04:51:23;21.60;99.90
15357;DHT22;7778;48.792;9.260;2023-06-22T04:54:13;21.50;99.90
15357;DHT22;7778;48.792;9.260;2023-06-22T04:56:59;21.70;99.90
15357;DHT22;7778;48.792;9.260;2023-06-22T04:59:45;21.70;99.90
15357;DHT22;7778;48.792;9.260;2023-06-22T05:02:31;21.90;99.90
15357;DHT22;7778;48.792;9.260;2023-06-22T05:05:17;22.10;99.90
15357;DHT22;7778;48.792;9.260;2023-06-22T05:08:04;22.30;99.90
15357;DHT22;7778;48.792;9.260;2023-06-22T05:10:50;22.30;99.90
15357;DHT22;7778;48.792;9.260;2023-06-22T05:13:36;23.10;99.90
15357;DHT22;7778;48.792;9.260;2023-06-22T05:16:22;23.50;99.90
15357;DHT22;7778;48.792;9.260;2023-06-22T05:19:09;24.70;99.90
15357;DHT22;7778;48.792;9.260;2023-06-22T05:21:54;24.80;99.90
15357;DHT22;7778;48.792;9.260;2023-06-22T05:24:41;25.40;99.90
15357;DHT22;7778;48.792;9.260;2023-06-22T05:27:26;26.60;99.90
15357;DHT22;7778;48.792;9.260;2023-06-22T05:30:12;26.10;99.90
15357;DHT22;7778;48.792;9.260;2023-06-22T05:33:00;25.80;99.90
15357;DHT22;7778;48.792;9.260;2023-06-22T05:35:45;25.30;99.90
15357;DHT22;7778;48.792;9.260;2023-06-22T05:38:32;24.70;99.90
15357;DHT22;7778;48.792;9.260;2023-06-22T05:41:20;24.70;99.90
15357;DHT22;7778;48.792;9.260;2023-06-22T05:44:06;25.50;99.90
15357;DHT22;7778;48.792;9.260;2023-06-22T05:46:51;26.20;99.90
15357;DHT22;7778;48.792;9.260;2023-06-22T05:49:37;26.00;99.90
15357;DHT22;7778;48.792;9.260;2023-06-22T05:52:22;26.00;99.90
15357;DHT22;7778;48.792;9.260;2023-06-22T05:55:08;26.20;99.90
15357;DHT22;7778;48.792;9.260;2023-06-22T05:57:56;26.30;99.90
15357;DHT22;7778;48.792;9.260;2023-06-22T06:00:42;26.70;99.90
15357;DHT22;7778;48.792;9.260;2023-06-22T06:03:28;26.80;99.90
15357;DHT22;7778;48.792;9.260;2023-06-22T06:06:13;26.50;99.90
15357;DHT22;7778;48.792;9.260;2023-06-22T06:08:59;27.00;99.90
15357;DHT22;7778;48.792;9.260;2023-06-22T06:11:45;26.90;99.90
15357;DHT22;7778;48.792;9.260;2023-06-22T06:14:32;26.40;99.90
15357;DHT22;7778;48.792;9.260;2023-06-22T06:17:18;26.40;99.90
15357;DHT22;7778;48.792;9.260;2023-06-22T06:20:04;25.80;99.90
15357;DHT22;7778;48.792;9.260;2023-06-22T06:22:52;25.70;99.90
15357;DHT22;7778;48.792;9.260;2023-06-22T06:25:37;25.60;99.90
15357;DHT22;7778;48.792;9.260;2023-06-22T06:28:24;25.20;99.90
15357;DHT22;7778;48.792;9.260;2023-06-22T06:31:12;25.50;99.90
15357;DHT22;7778;48.792;9.260;2023-06-22T06:34:01;25.80;99.90
15357;DHT22;7778;48.792;9.260;2023-06-22T06:36:46;26.40;99.90
15357;DHT22;7778;48.792;9.260;2023-06-22T06:39:32;28.00;99.90
15357;DHT22;7778;48.792;9.260;2023-06-22T06:42:17;29.70;99.90
15357;DHT22;7778;48.792;9.260;2023-06-22T06:45:05;30.00;99.90
15357;DHT22;7778;48.792;9.260;2023-06-22T06:47:52;29.60;99.90
15357;DHT22;7778;48.792;9.260;2023-06-22T06:50:38;30.30;99.90
15357;DHT22;7778;48.792;9.260;2023-06-22T06:53:24;29.70;99.90
15357;DHT22;7778;48.792;9.260;2023-06-22T06:56:09;29.80;99.90
15357;DHT22;7778;48.792;9.260;2023-06-22T06:58:56;30.50;99.90
15357;DHT22;7778;48.792;9.260;2023-06-22T07:01:42;30.20;99.90
15357;DHT22;7778;48.792;9.260;2023-06-22T07:04:30;29.80;99.90
15357;DHT22;7778;48.792;9.260;2023-06-22T07:07:16;30.00;99.90
15357;DHT22;7778;48.792;9.260;2023-06-22T07:10:02;30.90;99.90
15357;DHT22;7778;48.792;9.260;2023-06-22T07:12:48;30.90;99.90
15357;DHT22;7778;48.792;9.260;2023-06-22T07:15:34;30.60;99.90
15357;DHT22;7778;48.792;9.260;2023-06-22T07:18:19;31.50;99.90
15357;DHT22;7778;48.792;9.260;2023-06-22T07:21:06;32.00;99.90
15357;DHT22;7778;48.792;9.260;2023-06-22T07:23:52;31.30;99.90
15357;DHT22;7778;48.792;9.260;2023-06-22T07:26:38;31.40;99.90
15357;DHT22;7778;48.792;9.260;2023-06-22T07:29:25;31.00;99.90
15357;DHT22;7778;48.792;9.260;2023-06-22T07:32:11;31.40;99.90
15357;DHT22;7778;48.792;9.260;2023-06-22T07:34:57;31.50;99.90
15357;DHT22;7778;48.792;9.260;2023-06-22T07:37:43;30.30;99.90
15357;DHT22;7778;48.792;9.260;2023-06-22T07:40:29;31.30;99.90
15357;DHT22;7778;48.792;9.260;2023-06-22T07:43:15;31.50;99.90
15357;DHT22;7778;48.792;9.260;2023-06-22T07:46:00;31.60;99.90
15357;DHT22;7778;48.792;9.260;2023-06-22T07:48:46;31.50;99.90
15357;DHT22;7778;48.792;9.260;2023-06-22T07:51:32;31.50;99.90
15357;DHT22;7778;48.792;9.260;2023-06-22T07:54:18;31.20;99.90
15357;DHT22;7778;48.792;9.260;2023-06-22T07:57:05;31.40;99.90
15357;DHT22;7778;48.792;9.260;2023-06-22T07:59:51;32.10;99.90
15357;DHT22;7778;48.792;9.260;2023-06-22T08:02:36;33.00;99.90
15357;DHT22;7778;48.792;9.260;2023-06-22T08:05:22;33.00;99.90
15357;DHT22;7778;48.792;9.260;2023-06-22T08:08:07;33.30;99.90
15357;DHT22;7778;48.792;9.260;2023-06-22T08:10:54;33.60;99.90
15357;DHT22;7778;48.792;9.260;2023-06-22T08:13:40;33.00;99.90
15357;DHT22;7778;48.792;9.260;2023-06-22T08:16:26;33.20;99.90
15357;DHT22;7778;48.792;9.260;2023-06-22T08:19:12;34.70;99.90
15357;DHT22;7778;48.792;9.260;2023-06-22T08:21:57;35.70;99.90
15357;DHT22;7778;48.792;9.260;2023-06-22T08:24:43;36.40;99.90
15357;DHT22;7778;48.792;9.260;2023-06-22T08:27:30;36.40;99.90
15357;DHT22;7778;48.792;9.260;2023-06-22T08:30:16;35.50;99.90
15357;DHT22;7778;48.792;9.260;2023-06-22T08:33:02;34.40;99.90
15357;DHT22;7778;48.792;9.260;2023-06-22T08:35:48;33.90;99.90
15357;DHT22;7778;48.792;9.260;2023-06-22T08:38:34;33.80;99.90
15357;DHT22;7778;48.792;9.260;2023-06-22T08:41:20;33.60;99.90
15357;DHT22;7778;48.792;9.260;2023-06-22T08:44:06;33.60;99.90
15357;DHT22;7778;48.792;9.260;2023-06-22T08:46:52;34.80;99.90
15357;DHT22;7778;48.792;9.260;2023-06-22T08:49:37;36.00;99.90
15357;DHT22;7778;48.792;9.260;2023-06-22T08:52:23;36.60;99.90
15357;DHT22;7778;48.792;9.260;2023-06-22T08:55:09;36.10;99.90
15357;DHT22;7778;48.792;9.260;2023-06-22T08:57:55;35.40;99.90
15357;DHT22;7778;48.792;9.260;2023-06-22T09:00:42;34.60;99.90
15357;DHT22;7778;48.792;9.260;2023-06-22T09:03:28;34.30;99.90
15357;DHT22;7778;48.792;9.260;2023-06-22T09:06:13;34.80;99.90
15357;DHT22;7778;48.792;9.260;2023-06-22T09:09:00;35.30;99.90
15357;DHT22;7778;48.792;9.260;2023-06-22T09:11:47;35.40;98.70
15357;DHT22;7778;48.792;9.260;2023-06-22T09:14:32;36.00;98.40
15357;DHT22;7778;48.792;9.260;2023-06-22T09:17:19;36.20;98.50
15357;DHT22;7778;48.792;9.260;2023-06-22T09:20:07;35.50;99.50
15357;DHT22;7778;48.792;9.260;2023-06-22T09:22:55;35.10;99.90
15357;DHT22;7778;48.792;9.260;2023-06-22T09:25:40;35.10;99.80
15357;DHT22;7778;48.792;9.260;2023-06-22T09:28:26;36.10;99.10
15357;DHT22;7778;48.792;9.260;2023-06-22T09:31:11;37.10;96.40
15357;DHT22;7778;48.792;9.260;2023-06-22T09:33:59;37.40;98.10
15357;DHT22;7778;48.792;9.260;2023-06-22T09:36:45;38.20;97.10
15357;DHT22;7778;48.792;9.260;2023-06-22T09:39:30;38.60;93.30
15357;DHT22;7778;48.792;9.260;2023-06-22T09:42:16;39.40;92.20
15357;DHT22;7778;48.792;9.260;2023-06-22T09:45:02;39.30;87.00
15357;DHT22;7778;48.792;9.260;2023-06-22T09:47:48;39.60;87.40
15357;DHT22;7778;48.792;9.260;2023-06-22T09:50:35;39.50;87.20
15357;DHT22;7778;48.792;9.260;2023-06-22T09:53:21;38.20;84.20
15357;DHT22;7778;48.792;9.260;2023-06-22T09:56:07;37.30;86.40
15357;DHT22;7778;48.792;9.260;2023-06-22T09:58:59;35.20;90.40
15357;DHT22;7778;48.792;9.260;2023-06-22T10:01:44;34.00;94.20
15357;DHT22;7778;48.792;9.260;2023-06-22T10:04:30;34.90;96.30
15357;DHT22;7778;48.792;9.260;2023-06-22T10:07:17;36.20;91.10
15357;DHT22;7778;48.792;9.260;2023-06-22T10:10:03;36.50;90.20
15357;DHT22;7778;48.792;9.260;2023-06-22T10:12:57;37.00;91.60
15357;DHT22;7778;48.792;9.260;2023-06-22T10:15:43;36.70;89.70
15357;DHT22;7778;48.792;9.260;2023-06-22T10:18:33;35.70;90.10
15357;DHT22;7778;48.792;9.260;2023-06-22T10:21:19;34.00;91.80
15357;DHT22;7778;48.792;9.260;2023-06-22T10:24:06;33.20;92.60
15357;DHT22;7778;48.792;9.260;2023-06-22T10:26:52;32.90;93.70
15357;DHT22;7778;48.792;9.260;2023-06-22T10:29:38;33.10;94.80
15357;DHT22;7778;48.792;9.260;2023-06-22T10:32:23;33.50;94.90
15357;DHT22;7778;48.792;9.260;2023-06-22T10:35:09;33.50;95.40
15357;DHT22;7778;48.792;9.260;2023-06-22T10:37:57;33.40;96.30
15357;DHT22;7778;48.792;9.260;2023-06-22T10:40:45;32.70;97.00
15357;DHT22;7778;48.792;9.260;2023-06-22T10:43:31;32.20;98.80
15357;DHT22;7778;48.792;9.260;2023-06-22T10:46:17;32.90;98.30
15357;DHT22;7778;48.792;9.260;2023-06-22T10:49:02;32.90;98.20
15357;DHT22;7778;48.792;9.260;2023-06-22T10:51:48;32.90;97.80
15357;DHT22;7778;48.792;9.260;2023-06-22T10:54:34;32.40;98.10
15357;DHT22;7778;48.792;9.260;2023-06-22T10:57:22;31.70;99.40
15357;DHT22;7778;48.792;9.260;2023-06-22T11:00:08;31.70;99.90
15357;DHT22;7778;48.792;9.260;2023-06-22T11:02:55;31.50;99.90
15357;DHT22;7778;48.792;9.260;2023-06-22T11:05:42;31.30;99.90
15357;DHT22;7778;48.792;9.260;2023-06-22T11:08:28;31.30;99.90
15357;DHT22;7778;48.792;9.260;2023-06-22T11:11:13;31.30;99.90
15357;DHT22;7778;48.792;9.260;2023-06-22T11:14:00;31.40;99.90
15357;DHT22;7778;48.792;9.260;2023-06-22T11:16:46;31.60;99.90
15357;DHT22;7778;48.792;9.260;2023-06-22T11:19:32;31.80;99.90
15357;DHT22;7778;48.792;9.260;2023-06-22T11:22:17;31.90;99.90
15357;DHT22;7778;48.792;9.260;2023-06-22T11:25:03;31.70;99.90
15357;DHT22;7778;48.792;9.260;2023-06-22T11:27:49;31.60;99.90
15357;DHT22;7778;48.792;9.260;2023-06-22T11:30:36;31.60;99.90
15357;DHT22;7778;48.792;9.260;2023-06-22T11:33:22;31.90;99.90
15357;DHT22;7778;48.792;9.260;2023-06-22T11:36:08;32.00;99.90
15357;DHT22;7778;48.792;9.260;2023-06-22T11:38:53;32.20;99.90
15357;DHT22;7778;48.792;9.260;2023-06-22T11:41:41;32.30;99.90
15357;DHT22;7778;48.792;9.260;2023-06-22T11:44:27;32.30;99.90
15357;DHT22;7778;48.792;9.260;2023-06-22T11:47:14;32.40;99.90
15357;DHT22;7778;48.792;9.260;2023-06-22T11:50:00;32.90;99.90
15357;DHT22;7778;48.792;9.260;2023-06-22T11:52:45;33.30;99.90
15357;DHT22;7778;48.792;9.260;2023-06-22T11:55:31;33.90;99.90
15357;DHT22;7778;48.792;9.260;2023-06-22T11:58:17;34.40;99.90
15357;DHT22;7778;48.792;9.260;2023-06-22T12:01:04;34.00;98.90
15357;DHT22;7778;48.792;9.260;2023-06-22T12:03:51;33.50;99.90
15357;DHT22;7778;48.792;9.260;2023-06-22T12:06:38;33.30;98.20
15357;DHT22;7778;48.792;9.260;2023-06-22T12:09:26;32.90;98.40
15357;DHT22;7778;48.792;9.260;2023-06-22T12:12:12;33.20;99.90
15357;DHT22;7778;48.792;9.260;2023-06-22T12:14:57;33.50;98.10
15357;DHT22;7778;48.792;9.260;2023-06-22T12:17:47;33.50;99.20
15357;DHT22;7778;48.792;9.260;2023-06-22T12:20:34;33.50;99.50
15357;DHT22;7778;48.792;9.260;2023-06-22T12:23:20;33.30;99.60
15357;DHT22;7778;48.792;9.260;2023-06-22T12:26:06;33.30;97.70
15357;DHT22;7778;48.792;9.260;2023-06-22T12:28:51;33.20;98.20
15357;DHT22;7778;48.792;9.260;2023-06-22T12:31:37;33.20;98.80
15357;DHT22;7778;48.792;9.260;2023-06-22T12:34:23;32.90;97.90
15357;DHT22;7778;48.792;9.260;2023-06-22T12:37:10;33.00;99.90
15357;DHT22;7778;48.792;9.260;2023-06-22T12:39:56;33.10;98.90
15357;DHT22;7778;48.792;9.260;2023-06-22T12:42:42;33.10;99.20
15357;DHT22;7778;48.792;9.260;2023-06-22T12:45:30;32.90;99.90
15357;DHT22;7778;48.792;9.260;2023-06-22T12:48:17;32.80;99.90
15357;DHT22;7778;48.792;9.260;2023-06-22T12:51:03;32.70;99.90
15357;DHT22;7778;48.792;9.260;2023-06-22T12:53:50;32.70;99.90
15357;DHT22;7778;48.792;9.260;2023-06-22T12:56:36;32.70;99.70
15357;DHT22;7778;48.792;9.260;2023-06-22T12:59:22;32.40;99.80
15357;DHT22;7778;48.792;9.260;2023-06-22T13:02:08;32.20;99.90
15357;DHT22;7778;48.792;9.260;2023-06-22T13:04:54;32.10;99.90
15357;DHT22;7778;48.792;9.260;2023-06-22T13:07:39;31.90;99.90
15357;DHT22;7778;48.792;9.260;2023-06-22T13:10:27;31.90;99.90
15357;DHT22;7778;48.792;9.260;2023-06-22T13:13:13;32.10;99.90
15357;DHT22;7778;48.792;9.260;2023-06-22T13:15:59;32.30;99.90
15357;DHT22;7778;48.792;9.260;2023-06-22T13:18:45;32.40;99.90
15357;DHT22;7778;48.792;9.260;2023-06-22T13:21:30;32.50;99.70
15357;DHT22;7778;48.792;9.260;2023-06-22T13:24:18;32.50;99.90
15357;DHT22;7778;48.792;9.260;2023-06-22T13:27:05;32.80;99.90
15357;DHT22;7778;48.792;9.260;2023-06-22T13:29:51;32.90;99.90
15357;DHT22;7778;48.792;9.260;2023-06-22T13:32:37;32.90;99.90
15357;DHT22;7778;48.792;9.260;2023-06-22T13:35:25;32.90;99.90
15357;DHT22;7778;48.792;9.260;2023-06-22T13:38:11;33.00;99.90
15357;DHT22;7778;48.792;9.260;2023-06-22T13:40:56;33.10;98.60
15357;DHT22;7778;48.792;9.260;2023-06-22T13:43:45;32.90;99.90
15357;DHT22;7778;48.792;9.260;2023-06-22T13:46:30;33.00;99.90
15357;DHT22;7778;48.792;9.260;2023-06-22T13:49:16;33.10;99.90
15357;DHT22;7778;48.792;9.260;2023-06-22T13:52:01;33.10;98.60
15357;DHT22;7778;48.792;9.260;2023-06-22T13:54:48;33.20;99.60
15357;DHT22;7778;48.792;9.260;2023-06-22T13:57:33;33.30;99.90
15357;DHT22;7778;48.792;9.260;2023-06-22T14:00:20;33.30;98.10
15357;DHT22;7778;48.792;9.260;2023-06-22T14:03:06;33.10;99.90
15357;DHT22;7778;48.792;9.260;2023-06-22T14:05:52;33.20;99.70
15357;DHT22;7778;48.792;9.260;2023-06-22T14:08:40;33.30;99.30
15357;DHT22;7778;48.792;9.260;2023-06-22T14:11:26;33.50;99.10
15357;DHT22;7778;48.792;9.260;2023-06-22T14:14:11;33.50;97.20
15357;DHT22;7778;48.792;9.260;2023-06-22T14:16:59;33.30;98.00
15357;DHT22;7778;48.792;9.260;2023-06-22T14:22:27;33.80;99.80
15357;DHT22;7778;48.792;9.260;2023-06-22T14:38:45;33.80;96.70
15357;DHT22;7778;48.792;9.260;2023-06-22T14:41:31;33.60;93.00
15357;DHT22;7778;48.792;9.260;2023-06-22T14:44:22;33.40;94.20
15357;DHT22;7778;48.792;9.260;2023-06-22T14:50:46;33.40;95.30
15357;DHT22;7778;48.792;9.260;2023-06-22T14:53:31;33.40;91.00
15357;DHT22;7778;48.792;9.260;2023-06-22T14:56:24;33.30;92.20
15357;DHT22;7778;48.792;9.260;2023-06-22T14:59:10;33.30;91.90
15357;DHT22;7778;48.792;9.260;2023-06-22T15:01:55;33.20;91.90
15357;DHT22;7778;48.792;9.260;2023-06-22T15:04:41;33.10;92.20
15357;DHT22;7778;48.792;9.260;2023-06-22T15:07:27;33.10;91.90
15357;DHT22;7778;48.792;9.260;2023-06-22T15:10:13;32.90;92.90
15357;DHT22;7778;48.792;9.260;2023-06-22T15:16:59;32.70;88.60
15357;DHT22;7778;48.792;9.260;2023-06-22T15:19:45;32.30;86.90
15357;DHT22;7778;48.792;9.260;2023-06-22T15:29:18;32.30;85.10
15357;DHT22;7778;48.792;9.260;2023-06-22T15:32:06;32.30;84.80
15357;DHT22;7778;48.792;9.260;2023-06-22T15:34:52;32.10;84.30
15357;DHT22;7778;48.792;9.260;2023-06-22T15:37:38;31.80;81.00
15357;DHT22;7778;48.792;9.260;2023-06-22T15:40:23;31.80;84.00
15357;DHT22;7778;48.792;9.260;2023-06-22T15:43:10;31.80;83.20
15357;DHT22;7778;48.792;9.260;2023-06-22T15:45:56;31.70;81.20
15357;DHT22;7778;48.792;9.260;2023-06-22T15:48:43;31.70;83.70
15357;DHT22;7778;48.792;9.260;2023-06-22T15:51:29;31.80;80.60
15357;DHT22;7778;48.792;9.260;2023-06-22T15:54:14;31.90;81.30
15357;DHT22;7778;48.792;9.260;2023-06-22T15:57:00;32.00;81.80
15357;DHT22;7778;48.792;9.260;2023-06-22T15:59:45;31.90;80.00
15357;DHT22;7778;48.792;9.260;2023-06-22T16:02:31;31.90;80.00
15357;DHT22;7778;48.792;9.260;2023-06-22T16:05:18;31.80;79.30
15357;DHT22;7778;48.792;9.260;2023-06-22T16:08:07;31.80;80.30
15357;DHT22;7778;48.792;9.260;2023-06-22T16:10:55;31.80;80.40
15357;DHT22;7778;48.792;9.260;2023-06-22T16:13:41;31.70;80.50
15357;DHT22;7778;48.792;9.260;2023-06-22T16:16:26;31.80;81.50
15357;DHT22;7778;48.792;9.260;2023-06-22T16:19:12;31.60;79.80
15357;DHT22;7778;48.792;9.260;2023-06-22T16:21:59;31.50;80.70
15357;DHT22;7778;48.792;9.260;2023-06-22T16:24:44;31.50;81.20
15357;DHT22;7778;48.792;9.260;2023-06-22T16:27:31;31.30;82.20
15357;DHT22;7778;48.792;9.260;2023-06-22T16:30:17;31.20;81.50
15357;DHT22;7778;48.792;9.260;2023-06-22T16:33:03;31.10;82.50
15357;DHT22;7778;48.792;9.260;2023-06-22T16:35:48;31.00;85.50
15357;DHT22;7778;48.792;9.260;2023-06-22T16:38:35;31.00;83.70
15357;DHT22;7778;48.792;9.260;2023-06-22T16:41:22;30.90;83.10
15357;DHT22;7778;48.792;9.260;2023-06-22T16:44:10;30.90;85.20
15357;DHT22;7778;48.792;9.260;2023-06-22T16:46:55;30.70;84.60
15357;DHT22;7778;48.792;9.260;2023-06-22T16:49:41;30.70;85.40
15357;DHT22;7778;48.792;9.260;2023-06-22T16:52:26;30.80;86.20
15357;DHT22;7778;48.792;9.260;2023-06-22T16:55:13;30.60;84.40
15357;DHT22;7778;48.792;9.260;2023-06-22T16:58:00;30.40;84.90
15357;DHT22;7778;48.792;9.260;2023-06-22T17:00:47;30.40;86.10
15357;DHT22;7778;48.792;9.260;2023-06-22T17:03:33;30.20;85.30
15357;DHT22;7778;48.792;9.260;2023-06-22T17:06:22;30.20;86.10
15357;DHT22;7778;48.792;9.260;2023-06-22T17:09:11;30.10;87.10
15357;DHT22;7778;48.792;9.260;2023-06-22T17:12:00;30.00;88.40
15357;DHT22;7778;48.792;9.260;2023-06-22T17:14:46;29.90;87.40
15357;DHT22;7778;48.792;9.260;2023-06-22T17:17:32;29.80;88.00
15357;DHT22;7778;48.792;9.260;2023-06-22T17:20:19;29.70;88.50
15357;DHT22;7778;48.792;9.260;2023-06-22T17:23:04;29.60;88.60
15357;DHT22;7778;48.792;9.260;2023-06-22T17:25:52;29.30;89.40
15357;DHT22;7778;48.792;9.260;2023-06-22T17:28:49;29.20;89.80
15357;DHT22;7778;48.792;9.260;2023-06-22T17:31:37;29.20;90.40
15357;DHT22;7778;48.792;9.260;2023-06-22T17:34:27;29.20;90.40
15357;DHT22;7778;48.792;9.260;2023-06-22T17:37:13;29.00;90.60
15357;DHT22;7778;48.792;9.260;2023-06-22T17:39:59;29.00;90.20
15357;DHT22;7778;48.792;9.260;2023-06-22T17:42:45;28.80;89.40
15357;DHT22;7778;48.792;9.260;2023-06-22T17:45:40;28.70;90.00
15357;DHT22;7778;48.792;9.260;2023-06-22T17:48:29;28.60;89.20
15357;DHT22;7778;48.792;9.260;2023-06-22T17:51:15;28.50;88.80
15357;DHT22;7778;48.792;9.260;2023-06-22T17:54:01;28.40;89.10
15357;DHT22;7778;48.792;9.260;2023-06-22T17:56:48;28.30;88.40
15357;DHT22;7778;48.792;9.260;2023-06-22T17:59:35;28.30;88.50
15357;DHT22;7778;48.792;9.260;2023-06-22T18:02:24;28.10;90.10
15357;DHT22;7778;48.792;9.260;2023-06-22T18:05:10;28.00;90.70
15357;DHT22;7778;48.792;9.260;2023-06-22T18:07:58;27.90;90.80
15357;DHT22;7778;48.792;9.260;2023-06-22T18:10:45;27.80;91.40
15357;DHT22;7778;48.792;9.260;2023-06-22T18:13:31;27.70;91.80
15357;DHT22;7778;48.792;9.260;2023-06-22T18:16:17;27.60;91.70
15357;DHT22;7778;48.792;9.260;2023-06-22T18:19:05;27.50;90.80